Time;durP1;ratioP1;P1;durP2;ratioP2;P2;SDS_P1;SDS_P2;PMS_P1;PMS_P2;Temp;Humidity;BMP_temperature;BMP_pressure;BME280_temperature;BME280_humidity;BME280_pressure;Samples;Min_cycle;Max_cycle;Signal;HPM_P1;HPM_P2
2021/06/27 00:00:40;;;;;;;19.60;14.27;;;;;;;15.30;93.01;101894.97;4951079;28;20563;-80
2021/06/27 00:03:26;;;;;;;17.80;14.30;;;;;;;15.28;93.79;101901.41;4949039;28;20031;-81
2021/06/27 00:05:51;;;;;;;18.52;14.43;;;;;;;15.23;93.27;101898.38;4953902;28;20042;-79
2021/06/27 00:08:17;;;;;;;20.05;13.90;;;;;;;15.24;93.72;101897.38;4937322;28;20045;-80
2021/06/27 00:10:45;;;;;;;18.33;13.68;;;;;;;15.21;93.67;101898.50;4940767;28;20073;-81
2021/06/27 00:13:12;;;;;;;22.35;14.00;;;;;;;15.12;94.17;101897.56;4956310;28;20031;-80
2021/06/27 00:15:43;;;;;;;16.00;12.88;;;;;;;15.14;94.02;101911.50;4924397;28;20054;-80
2021/06/27 00:18:13;;;;;;;15.73;13.00;;;;;;;15.07;93.93;101904.28;4940722;28;20049;-79
2021/06/27 00:20:39;;;;;;;19.15;13.68;;;;;;;15.05;94.25;101901.81;4926823;28;20042;-80
2021/06/27 00:23:06;;;;;;;20.55;15.20;;;;;;;15.01;94.52;101907.53;4938890;28;20041;-80
2021/06/27 00:25:32;;;;;;;20.13;14.20;;;;;;;14.98;95.15;101911.31;4943234;28;20039;-80
2021/06/27 00:28:05;;;;;;;20.88;14.43;;;;;;;14.94;95.07;101904.66;4947923;28;20145;-80
2021/06/27 00:30:32;;;;;;;17.50;13.75;;;;;;;14.79;95.13;101894.56;4940835;28;20042;-79
2021/06/27 00:32:58;;;;;;;17.50;13.30;;;;;;;14.83;95.17;101910.13;4925110;28;20086;-81
2021/06/27 00:35:25;;;;;;;19.35;13.95;;;;;;;14.77;95.10;101907.09;4962515;28;20306;-78
2021/06/27 00:37:52;;;;;;;20.55;13.80;;;;;;;14.71;95.36;101897.09;4938623;28;20035;-79
2021/06/27 00:40:21;;;;;;;18.27;13.95;;;;;;;14.60;95.62;101887.56;4923666;28;20042;-80
2021/06/27 00:42:48;;;;;;;24.08;13.80;;;;;;;14.65;95.59;101902.94;4954962;28;20046;-78
2021/06/27 00:45:16;;;;;;;19.58;13.82;;;;;;;14.61;95.61;101901.56;4924323;28;20068;-79
2021/06/27 00:47:43;;;;;;;20.20;13.90;;;;;;;14.56;95.71;101901.13;4940034;28;20039;-77
2021/06/27 00:50:22;;;;;;;20.15;14.35;;;;;;;14.51;96.21;101898.13;4961236;28;20027;-77
2021/06/27 00:52:48;;;;;;;21.98;14.30;;;;;;;14.48;96.36;101908.97;4951768;28;20039;-80
2021/06/27 00:55:15;;;;;;;25.70;15.15;;;;;;;14.43;96.77;101912.03;4934928;28;20062;-78
2021/06/27 00:57:43;;;;;;;26.05;13.98;;;;;;;14.32;96.68;101899.84;4943823;28;20069;-80
2021/06/27 01:00:12;;;;;;;25.08;14.43;;;;;;;14.31;96.89;101892.06;4918010;28;20497;-79
2021/06/27 01:02:38;;;;;;;17.83;13.65;;;;;;;14.25;96.94;101892.63;4923220;28;20031;-80
2021/06/27 01:05:06;;;;;;;17.02;13.32;;;;;;;14.25;97.17;101887.34;4941676;28;20097;-78
2021/06/27 01:07:32;;;;;;;18.70;14.05;;;;;;;14.21;97.11;101894.72;4946347;28;20122;-79
2021/06/27 01:09:57;;;;;;;22.85;13.82;;;;;;;14.16;97.04;101887.22;4937529;28;20496;-80
2021/06/27 01:12:23;;;;;;;20.00;14.25;;;;;;;14.10;97.31;101879.88;4926743;28;20560;-78
2021/06/27 01:14:49;;;;;;;19.45;14.82;;;;;;;14.14;97.37;101897.09;4928854;28;20047;-81
2021/06/27 01:17:15;;;;;;;17.52;14.73;;;;;;;14.06;97.98;101894.34;4964593;28;20043;-80
2021/06/27 01:19:41;;;;;;;18.13;14.15;;;;;;;13.99;97.92;101888.81;4966307;28;20062;-79
2021/06/27 01:22:07;;;;;;;17.40;14.15;;;;;;;14.01;98.08;101888.63;4939472;28;20027;-79
2021/06/27 01:24:32;;;;;;;19.10;15.73;;;;;;;14.02;97.80;101887.69;4939963;28;20101;-79
2021/06/27 01:26:58;;;;;;;17.15;13.80;;;;;;;14.06;97.45;101888.22;4972255;28;20054;-79
2021/06/27 01:29:23;;;;;;;17.17;13.80;;;;;;;14.02;97.58;101890.31;4920787;28;20070;-80
2021/06/27 01:31:49;;;;;;;20.95;13.57;;;;;;;14.05;97.30;101900.56;4939350;28;20062;-81
2021/06/27 01:34:15;;;;;;;20.20;14.57;;;;;;;14.10;97.39;101902.81;4939958;28;20034;-81
2021/06/27 01:36:41;;;;;;;18.83;15.15;;;;;;;14.04;97.49;101892.81;4956637;28;20038;-79
2021/06/27 01:39:06;;;;;;;22.42;16.30;;;;;;;14.07;97.76;101892.50;4923587;28;20491;-79
2021/06/27 01:41:32;;;;;;;19.65;15.25;;;;;;;14.05;97.84;101894.47;4923125;28;20038;-78
2021/06/27 01:43:58;;;;;;;19.55;14.95;;;;;;;14.02;98.08;101896.41;4971177;28;20038;-78
2021/06/27 01:46:23;;;;;;;19.60;14.50;;;;;;;13.95;98.24;101887.41;4956465;28;20082;-79
2021/06/27 01:48:49;;;;;;;23.13;15.13;;;;;;;13.92;98.56;101892.97;4937815;28;20081;-79
2021/06/27 01:51:15;;;;;;;21.63;15.27;;;;;;;13.87;98.11;101900.47;4938014;28;20069;-79
2021/06/27 01:53:41;;;;;;;18.35;15.80;;;;;;;13.87;98.51;101891.72;4961881;28;20039;-79
2021/06/27 01:56:07;;;;;;;22.17;15.98;;;;;;;13.83;98.49;101896.44;4938755;28;20042;-80
2021/06/27 01:58:51;;;;;;;21.33;16.20;;;;;;;13.77;98.80;101894.38;4953549;28;20045;-79
2021/06/27 02:01:31;;;;;;;24.15;16.58;;;;;;;13.78;99.20;101891.56;4932946;28;20024;-79
2021/06/27 02:03:57;;;;;;;21.40;16.10;;;;;;;13.74;99.42;101884.09;4937325;28;20122;-78
2021/06/27 02:06:26;;;;;;;27.83;18.80;;;;;;;13.70;99.59;101880.91;4956636;28;20069;-79
2021/06/27 02:08:53;;;;;;;28.85;20.70;;;;;;;13.60;99.86;101878.28;4951583;28;20049;-78
2021/06/27 02:11:21;;;;;;;31.88;20.98;;;;;;;13.59;100.00;101873.97;4956485;28;20038;-78
2021/06/27 02:13:48;;;;;;;29.17;19.25;;;;;;;13.45;100.00;101850.66;4941529;28;20075;-78
2021/06/27 02:16:14;;;;;;;27.98;19.23;;;;;;;13.48;99.45;101860.91;4950589;29;20514;-78
2021/06/27 02:18:43;;;;;;;28.73;20.45;;;;;;;13.57;100.00;101880.34;4961293;28;20117;-79
2021/06/27 02:21:11;;;;;;;23.30;18.65;;;;;;;13.54;100.00;101876.19;4961250;28;20030;-80
2021/06/27 02:23:37;;;;;;;28.38;19.10;;;;;;;13.53;99.87;101874.50;4949048;28;20508;-79
2021/06/27 02:26:03;;;;;;;26.50;18.92;;;;;;;13.49;99.55;101859.13;4954255;28;20038;-79
2021/06/27 02:28:30;;;;;;;27.33;18.80;;;;;;;13.56;99.56;101870.75;4969512;28;20039;-79
2021/06/27 02:30:57;;;;;;;27.33;19.00;;;;;;;13.58;99.66;101872.31;4955501;28;20097;-79
2021/06/27 02:33:23;;;;;;;25.42;19.67;;;;;;;13.56;99.97;101861.06;4970871;28;20031;-79
2021/06/27 02:35:49;;;;;;;26.27;17.90;;;;;;;13.50;99.69;101858.97;4945818;28;20042;-79
2021/06/27 02:38:15;;;;;;;30.80;18.77;;;;;;;13.54;99.97;101862.16;4953772;28;20058;-79
2021/06/27 02:40:42;;;;;;;29.25;19.80;;;;;;;13.57;99.84;101869.81;4953129;28;20038;-79
2021/06/27 02:43:08;;;;;;;27.48;18.10;;;;;;;13.56;100.00;101855.81;4937713;28;20046;-78
2021/06/27 02:45:34;;;;;;;23.35;17.42;;;;;;;13.58;99.93;101858.28;4937290;28;20735;-79
2021/06/27 02:48:00;;;;;;;23.00;16.90;;;;;;;13.62;99.66;101860.50;4953801;28;20038;-78
2021/06/27 02:50:26;;;;;;;23.70;15.70;;;;;;;13.72;99.63;101857.03;4945025;28;20458;-80
2021/06/27 02:52:51;;;;;;;21.52;16.70;;;;;;;13.79;99.73;101858.16;4940366;28;20068;-79
2021/06/27 02:55:17;;;;;;;22.20;15.93;;;;;;;13.85;100.00;101865.50;4941851;28;20048;-80
2021/06/27 02:57:43;;;;;;;22.95;17.27;;;;;;;13.91;99.77;101864.91;4953467;28;20511;-78
2021/06/27 03:00:12;;;;;;;21.58;16.73;;;;;;;13.92;99.78;101861.31;4937350;28;20105;-79
2021/06/27 03:02:38;;;;;;;21.60;16.38;;;;;;;13.97;100.00;101869.63;4937306;28;20050;-79
2021/06/27 03:05:04;;;;;;;24.00;17.58;;;;;;;14.04;99.91;101869.91;4945388;28;20061;-79
2021/06/27 03:07:30;;;;;;;26.58;17.88;;;;;;;14.01;100.00;101864.91;4937182;28;20125;-79
2021/06/27 03:09:55;;;;;;;24.52;17.25;;;;;;;14.08;100.00;101867.81;4950901;28;20545;-79
2021/06/27 03:12:21;;;;;;;23.48;17.88;;;;;;;14.12;100.00;101864.72;4937755;28;20035;-79
2021/06/27 03:14:46;;;;;;;24.08;17.77;;;;;;;14.11;100.00;101864.88;4920953;28;20031;-78
2021/06/27 03:17:12;;;;;;;27.42;19.23;;;;;;;14.18;99.96;101860.69;4937282;28;20045;-80
2021/06/27 03:19:37;;;;;;;26.13;19.25;;;;;;;14.23;100.00;101857.66;4940149;28;20075;-79
2021/06/27 03:22:03;;;;;;;25.88;19.30;;;;;;;14.27;99.83;101859.84;4952798;28;20093;-78
2021/06/27 03:24:29;;;;;;;25.73;19.05;;;;;;;14.35;99.97;101867.91;4949941;28;20027;-79
2021/06/27 03:26:54;;;;;;;26.23;19.35;;;;;;;14.35;100.00;101865.25;4935699;28;20047;-77
2021/06/27 03:29:20;;;;;;;25.05;18.60;;;;;;;14.34;100.00;101863.56;4934281;28;20062;-78
2021/06/27 03:31:46;;;;;;;26.70;19.27;;;;;;;14.36;100.00;101864.25;4916846;28;20542;-77
2021/06/27 03:34:11;;;;;;;29.27;20.27;;;;;;;14.42;99.98;101868.13;4966949;28;20050;-79
2021/06/27 03:36:37;;;;;;;26.30;19.77;;;;;;;14.38;99.96;101856.22;4952550;28;20046;-78
2021/06/27 03:39:11;;;;;;;23.30;18.80;;;;;;;14.46;99.83;101858.13;4936643;28;20613;-78
2021/06/27 03:41:53;;;;;;;23.92;17.42;;;;;;;14.51;99.02;101858.53;4925594;28;20045;-77
2021/06/27 03:44:21;;;;;;;25.08;18.40;;;;;;;14.54;99.16;101858.22;4933178;28;20389;-78
2021/06/27 03:46:46;;;;;;;27.20;19.23;;;;;;;14.56;99.25;101858.91;4939684;28;20046;-78
2021/06/27 03:49:12;;;;;;;25.85;17.65;;;;;;;14.65;99.33;101865.97;4956085;28;20035;-78
2021/06/27 03:51:38;;;;;;;26.67;17.83;;;;;;;14.70;99.21;101861.09;4924682;28;20051;-77
2021/06/27 03:54:04;;;;;;;25.80;16.95;;;;;;;14.77;98.34;101864.00;4956139;28;20035;-79
2021/06/27 03:56:29;;;;;;;21.08;16.23;;;;;;;14.85;98.57;101863.25;4941509;28;20043;-78
2021/06/27 03:58:55;;;;;;;22.42;16.60;;;;;;;14.91;98.82;101850.28;4948152;28;20500;-79
2021/06/27 04:01:21;;;;;;;26.58;17.67;;;;;;;15.10;99.30;101859.91;4941278;28;20031;-79
2021/06/27 04:03:46;;;;;;;23.13;17.73;;;;;;;15.15;99.29;101855.00;4944810;28;20061;-77
2021/06/27 04:06:12;;;;;;;23.35;16.92;;;;;;;15.23;99.02;101869.28;4958159;28;20030;-79
2021/06/27 04:08:38;;;;;;;22.77;16.48;;;;;;;15.22;98.66;101862.31;4945423;28;20034;-79
2021/06/27 04:11:04;;;;;;;22.42;15.98;;;;;;;15.25;98.71;101864.69;4937821;28;20420;-78
2021/06/27 04:13:32;;;;;;;23.20;17.83;;;;;;;15.31;99.42;101882.56;4967438;28;20038;-78
2021/06/27 04:15:59;;;;;;;24.83;16.27;;;;;;;15.28;99.90;101870.50;4953574;28;20034;-78
2021/06/27 04:18:25;;;;;;;23.23;16.65;;;;;;;15.31;99.90;101869.34;4973520;28;20034;-79
2021/06/27 04:20:54;;;;;;;17.92;15.25;;;;;;;15.32;99.72;101874.50;4951595;28;20038;-77
2021/06/27 04:23:20;;;;;;;22.10;16.58;;;;;;;15.31;99.77;101872.84;4949595;28;20069;-79
2021/06/27 04:25:46;;;;;;;19.02;14.57;;;;;;;15.36;99.19;101877.69;4940522;28;20066;-78
2021/06/27 04:28:12;;;;;;;18.88;15.20;;;;;;;15.38;99.02;101867.78;4940320;29;20060;-79
2021/06/27 04:30:39;;;;;;;19.88;16.00;;;;;;;15.46;98.59;101877.59;4954236;28;20142;-79
2021/06/27 04:33:06;;;;;;;18.75;15.45;;;;;;;15.48;98.13;101863.28;4941915;28;20485;-77
2021/06/27 04:35:34;;;;;;;18.08;14.82;;;;;;;15.55;98.08;101871.41;4938930;28;20043;-78
2021/06/27 04:38:00;;;;;;;19.75;15.07;;;;;;;15.62;98.16;101869.00;4961867;28;20045;-79
2021/06/27 04:40:26;;;;;;;21.20;14.18;;;;;;;15.64;97.94;101867.03;4923372;28;20030;-79
2021/06/27 04:42:51;;;;;;;18.77;14.85;;;;;;;15.64;97.51;101859.09;4971220;28;20117;-78
2021/06/27 04:45:17;;;;;;;20.27;15.80;;;;;;;15.71;97.28;101846.94;4954655;28;20042;-79
2021/06/27 04:47:43;;;;;;;19.65;14.77;;;;;;;15.80;97.84;101855.78;4939652;29;20039;-80
2021/06/27 04:50:09;;;;;;;22.17;15.75;;;;;;;15.91;97.70;101866.09;4972297;28;20041;-78
2021/06/27 04:52:35;;;;;;;18.90;14.55;;;;;;;15.95;97.64;101862.16;4943260;28;20101;-79
2021/06/27 04:55:02;;;;;;;17.88;13.95;;;;;;;16.02;97.74;101863.22;4972293;28;20615;-78
2021/06/27 04:57:28;;;;;;;18.65;15.13;;;;;;;16.10;97.56;101862.44;4955593;28;20052;-78
2021/06/27 04:59:53;;;;;;;20.88;16.45;;;;;;;16.18;96.80;101870.44;4939873;28;20417;-79
2021/06/27 05:02:19;;;;;;;21.35;16.33;;;;;;;16.23;95.91;101872.63;4935539;28;20152;-79
2021/06/27 05:04:44;;;;;;;20.77;16.17;;;;;;;16.29;96.59;101871.97;4969847;28;20110;-79
2021/06/27 05:07:10;;;;;;;22.35;16.23;;;;;;;16.29;96.62;101862.25;4955326;28;20038;-78
2021/06/27 05:09:35;;;;;;;20.30;15.68;;;;;;;16.35;96.56;101868.72;4966907;28;20026;-79
2021/06/27 05:12:01;;;;;;;20.88;16.65;;;;;;;16.46;95.38;101867.59;4955676;28;20031;-78
2021/06/27 05:14:27;;;;;;;19.17;15.23;;;;;;;16.50;95.35;101875.09;4941283;28;20045;-79
2021/06/27 05:16:52;;;;;;;22.45;16.23;;;;;;;16.57;95.26;101872.63;4937983;28;20034;-79
2021/06/27 05:19:18;;;;;;;21.73;15.48;;;;;;;16.61;93.80;101868.66;4934983;28;20038;-78
2021/06/27 05:21:44;;;;;;;23.35;15.95;;;;;;;16.72;92.96;101876.31;4972388;28;20060;-79
2021/06/27 05:24:09;;;;;;;18.83;14.95;;;;;;;16.82;93.92;101872.72;4923912;28;20798;-78
2021/06/27 05:26:35;;;;;;;18.65;15.15;;;;;;;16.83;93.81;101863.84;4939449;28;20150;-80
2021/06/27 05:29:00;;;;;;;18.67;15.15;;;;;;;16.82;93.01;101856.81;4939405;28;20038;-80
2021/06/27 05:31:26;;;;;;;19.77;15.48;;;;;;;16.98;94.18;101870.16;4969655;28;20073;-80
2021/06/27 05:33:52;;;;;;;20.48;13.98;;;;;;;17.03;94.91;101867.06;4938489;28;20130;-79
2021/06/27 05:36:17;;;;;;;15.30;12.77;;;;;;;17.12;95.16;101874.84;4920362;29;20046;-79
2021/06/27 05:38:43;;;;;;;18.77;14.40;;;;;;;17.15;93.92;101871.03;4950674;28;20039;-79
2021/06/27 05:41:09;;;;;;;16.58;13.75;;;;;;;17.20;92.63;101875.88;4943990;28;20045;-79
2021/06/27 05:43:34;;;;;;;21.77;15.95;;;;;;;17.20;91.80;101870.56;4967394;28;20058;-79
2021/06/27 05:46:02;;;;;;;20.27;14.68;;;;;;;17.34;91.57;101888.47;4973231;28;20034;-80
2021/06/27 05:48:28;;;;;;;20.92;15.77;;;;;;;17.36;91.14;101875.88;4971846;28;20035;-80
2021/06/27 05:50:53;;;;;;;23.88;16.13;;;;;;;17.45;89.59;101877.56;4955703;28;20081;-81
2021/06/27 05:53:19;;;;;;;21.02;15.43;;;;;;;17.43;89.64;101868.94;4926616;28;20129;-80
2021/06/27 05:55:45;;;;;;;18.10;15.02;;;;;;;17.41;89.13;101857.66;4941229;28;20113;-80
2021/06/27 05:58:10;;;;;;;20.80;15.77;;;;;;;17.55;88.60;101877.38;4956248;28;20045;-79
2021/06/27 06:00:36;;;;;;;19.42;14.63;;;;;;;17.69;89.89;101881.22;4938004;28;20038;-78
2021/06/27 06:03:01;;;;;;;17.15;13.60;;;;;;;17.70;88.51;101878.38;4954039;28;20490;-78
2021/06/27 06:05:27;;;;;;;16.70;13.63;;;;;;;17.70;86.45;101869.59;4937165;28;20031;-79
2021/06/27 06:07:53;;;;;;;22.30;13.77;;;;;;;17.76;87.36;101874.22;4954750;28;20042;-79
2021/06/27 06:10:20;;;;;;;20.23;14.65;;;;;;;17.77;85.07;101875.09;4955981;28;20119;-79
2021/06/27 06:12:45;;;;;;;17.50;14.13;;;;;;;17.86;83.83;101876.78;4964309;28;20819;-79
2021/06/27 06:15:12;;;;;;;16.30;13.02;;;;;;;17.95;86.17;101880.22;4938715;28;20082;-78
2021/06/27 06:17:39;;;;;;;17.73;13.82;;;;;;;17.98;84.83;101863.97;4943846;29;20031;-80
2021/06/27 06:20:05;;;;;;;18.08;14.30;;;;;;;18.15;84.02;101881.53;4955022;28;20045;-80
2021/06/27 06:22:31;;;;;;;17.13;13.90;;;;;;;18.28;82.23;101873.06;4973340;28;20069;-80
2021/06/27 06:24:57;;;;;;;16.35;13.43;;;;;;;18.53;80.30;101873.78;4955992;28;20039;-78
2021/06/27 06:27:23;;;;;;;15.18;12.55;;;;;;;18.76;79.60;101878.34;4954857;28;20645;-77
2021/06/27 06:29:49;;;;;;;14.80;11.48;;;;;;;18.91;80.01;101879.34;4934553;28;20046;-79
2021/06/27 06:32:14;;;;;;;18.58;12.63;;;;;;;19.19;76.82;101862.88;4938624;28;20038;-80
2021/06/27 06:34:40;;;;;;;14.70;11.45;;;;;;;19.51;74.36;101869.78;4947873;28;20050;-78
2021/06/27 06:37:06;;;;;;;15.90;12.50;;;;;;;19.69;74.39;101868.66;4955023;28;20042;-79
2021/06/27 06:39:31;;;;;;;16.17;11.85;;;;;;;19.83;73.02;101871.41;4938736;28;20039;-79
2021/06/27 06:41:57;;;;;;;14.15;12.63;;;;;;;19.93;72.80;101884.44;4935893;28;20038;-80
2021/06/27 06:44:22;;;;;;;19.10;12.90;;;;;;;20.00;74.40;101877.41;4953998;28;20121;-78
2021/06/27 06:46:48;;;;;;;17.80;13.30;;;;;;;19.99;72.65;101873.06;4938765;28;20040;-77
2021/06/27 06:49:13;;;;;;;15.57;13.05;;;;;;;19.85;73.72;101876.53;4970359;28;20034;-80
2021/06/27 06:51:39;;;;;;;16.02;12.80;;;;;;;19.81;73.29;101870.72;4951314;28;20492;-81
2021/06/27 06:54:04;;;;;;;16.00;12.73;;;;;;;20.02;73.42;101871.88;4920811;28;20042;-79
2021/06/27 06:56:30;;;;;;;14.90;12.45;;;;;;;20.15;71.47;101881.91;4954105;28;20046;-80
2021/06/27 06:58:56;;;;;;;16.58;12.98;;;;;;;20.33;70.76;101881.56;4971714;28;20039;-79
2021/06/27 07:01:21;;;;;;;17.58;12.02;;;;;;;20.23;69.79;101873.84;4961748;28;20035;-79
2021/06/27 07:03:47;;;;;;;14.70;10.90;;;;;;;20.20;70.18;101879.53;4922218;28;20034;-79
2021/06/27 07:06:13;;;;;;;14.27;10.85;;;;;;;20.31;69.94;101878.25;4938119;28;20046;-79
2021/06/27 07:08:38;;;;;;;15.45;10.70;;;;;;;20.49;69.23;101877.88;4923590;28;20465;-80
2021/06/27 07:11:04;;;;;;;11.95;9.35;;;;;;;20.58;68.98;101880.25;4946152;28;20089;-80
2021/06/27 07:13:30;;;;;;;12.48;9.50;;;;;;;20.63;70.77;101881.59;4953449;28;20097;-80
2021/06/27 07:15:55;;;;;;;11.68;8.77;;;;;;;20.73;71.24;101874.13;4952232;28;20105;-80
2021/06/27 07:18:21;;;;;;;12.68;9.95;;;;;;;20.77;67.92;101868.22;4938202;28;20096;-80
2021/06/27 07:20:48;;;;;;;10.30;8.45;;;;;;;20.97;72.34;101870.31;4924751;28;20058;-78
2021/06/27 07:23:14;;;;;;;9.98;8.00;;;;;;;20.99;65.57;101874.41;4943071;28;20400;-78
2021/06/27 07:25:39;;;;;;;11.10;8.07;;;;;;;21.12;64.76;101873.75;4950045;28;20034;-79
2021/06/27 07:28:05;;;;;;;9.52;8.30;;;;;;;21.19;61.99;101863.97;4947307;28;20043;-78
2021/06/27 07:30:31;;;;;;;10.15;8.95;;;;;;;21.06;62.90;101865.66;4954193;28;20050;-77
2021/06/27 07:32:56;;;;;;;14.02;8.57;;;;;;;21.26;63.01;101865.88;4923229;28;20046;-79
2021/06/27 07:35:21;;;;;;;10.10;8.38;;;;;;;21.41;64.77;101866.63;4970939;28;20050;-79
2021/06/27 07:37:47;;;;;;;8.20;7.35;;;;;;;21.56;64.55;101861.25;4928147;28;20150;-79
2021/06/27 07:40:13;;;;;;;9.07;8.13;;;;;;;21.77;61.87;101871.06;4931199;28;20046;-79
2021/06/27 07:42:39;;;;;;;10.25;8.57;;;;;;;21.71;62.04;101848.63;4921791;28;20042;-79
2021/06/27 07:45:06;;;;;;;10.00;8.50;;;;;;;21.85;64.98;101873.63;4921657;28;20058;-78
2021/06/27 07:47:31;;;;;;;11.75;7.93;;;;;;;21.78;61.39;101865.53;4939351;28;20045;-79
2021/06/27 07:49:57;;;;;;;11.60;8.43;;;;;;;21.86;60.80;101879.78;4953483;28;20034;-79
2021/06/27 07:52:22;;;;;;;13.00;8.85;;;;;;;21.92;58.50;101882.50;4931725;28;20509;-79
2021/06/27 07:54:48;;;;;;;9.48;7.88;;;;;;;21.99;60.02;101879.06;4944984;28;20816;-80
2021/06/27 07:57:14;;;;;;;15.27;9.30;;;;;;;22.19;60.04;101882.69;4945776;28;20074;-79
2021/06/27 07:59:39;;;;;;;9.75;8.75;;;;;;;22.31;59.95;101872.31;4938628;28;20085;-79
2021/06/27 08:02:05;;;;;;;9.65;8.18;;;;;;;22.45;58.50;101873.19;4939408;28;20050;-78
2021/06/27 08:04:30;;;;;;;10.18;8.20;;;;;;;22.48;59.86;101864.78;4951866;28;20035;-80
2021/06/27 08:06:56;;;;;;;12.85;9.30;;;;;;;22.52;58.55;101858.81;4939368;28;20520;-79
2021/06/27 08:09:21;;;;;;;11.95;8.40;;;;;;;22.67;58.70;101873.91;4942229;28;20050;-79
2021/06/27 08:11:47;;;;;;;12.15;8.77;;;;;;;22.61;57.80;101875.53;4961604;28;20504;-79
2021/06/27 08:14:13;;;;;;;13.23;8.82;;;;;;;22.63;58.24;101873.47;4938552;28;20035;-77
2021/06/27 08:16:38;;;;;;;10.38;8.88;;;;;;;22.70;57.98;101876.19;4969203;28;20035;-78
2021/06/27 08:19:05;;;;;;;9.23;8.02;;;;;;;22.86;60.63;101870.47;4968931;28;20074;-78
2021/06/27 08:21:32;;;;;;;12.38;9.50;;;;;;;22.64;58.61;101872.47;4965291;28;20031;-78
2021/06/27 08:23:57;;;;;;;11.23;9.45;;;;;;;22.74;61.77;101864.88;4954080;28;20529;-79
2021/06/27 08:26:24;;;;;;;10.98;8.75;;;;;;;22.86;58.57;101866.97;4922655;29;20183;-80
2021/06/27 08:28:51;;;;;;;15.82;10.40;;;;;;;23.08;60.61;101863.16;4960670;28;20088;-75
2021/06/27 08:31:16;;;;;;;11.10;8.90;;;;;;;23.28;58.63;101870.41;4938405;28;20039;-77
2021/06/27 08:33:42;;;;;;;14.18;8.80;;;;;;;23.31;59.03;101851.25;4955097;28;20049;-77
2021/06/27 08:36:07;;;;;;;14.93;10.18;;;;;;;23.29;57.72;101850.66;4942146;28;20030;-78
2021/06/27 08:38:33;;;;;;;12.68;10.68;;;;;;;23.09;58.61;101861.31;4960875;28;20074;-77
2021/06/27 08:40:59;;;;;;;13.10;11.32;;;;;;;23.19;57.88;101858.22;4942545;28;20039;-77
2021/06/27 08:43:32;;;;;;;12.07;9.63;;;;;;;23.37;57.43;101847.75;4939580;28;20049;-78
2021/06/27 08:46:05;;;;;;;15.40;10.77;;;;;;;23.43;56.60;101849.63;4946864;28;20038;-78
2021/06/27 08:48:34;;;;;;;;;;;;;;;23.61;59.08;101838.28;4974449;28;20034;-77
2021/06/27 08:50:59;;;;;;;15.52;11.15;;;;;;;23.71;58.10;101846.75;4968157;28;19921;-77
2021/06/27 08:53:25;;;;;;;15.75;10.05;;;;;;;23.74;55.33;101842.81;4932270;28;20030;-78
2021/06/27 08:56:04;;;;;;;12.88;9.48;;;;;;;23.83;55.30;101852.34;4956387;28;20038;-78
2021/06/27 08:58:38;;;;;;;10.50;9.40;;;;;;;23.92;54.74;101850.25;4955968;28;20392;-78
2021/06/27 09:01:05;;;;;;;9.75;8.20;;;;;;;24.07;56.91;101842.81;4973067;28;20073;-77
2021/06/27 09:03:31;;;;;;;12.57;9.15;;;;;;;24.18;55.96;101843.19;4942842;28;20121;-78
2021/06/27 09:05:58;;;;;;;11.77;9.35;;;;;;;24.29;53.80;101845.22;4944530;28;20411;-77
2021/06/27 09:08:24;;;;;;;10.68;8.65;;;;;;;24.16;53.48;101834.53;4956201;28;20089;-76
2021/06/27 09:10:50;;;;;;;11.63;9.40;;;;;;;23.55;54.47;101835.63;4960520;28;20031;-77
2021/06/27 09:13:15;;;;;;;10.40;8.13;;;;;;;23.58;56.30;101833.34;4923946;28;20412;-76
2021/06/27 09:15:50;;;;;;;12.35;7.35;;;;;;;23.87;56.54;101828.63;4973284;28;20046;-78
2021/06/27 09:18:15;;;;;;;8.30;6.88;;;;;;;24.44;57.04;101843.09;4940584;28;20051;-79
2021/06/27 09:20:46;;;;;;;8.68;7.78;;;;;;;24.62;54.52;101834.41;4955046;28;20045;-79
2021/06/27 09:23:14;;;;;;;11.93;7.80;;;;;;;24.65;53.68;101831.25;4971705;28;20066;-79
2021/06/27 09:25:41;;;;;;;8.38;6.80;;;;;;;24.61;54.78;101838.09;4924507;28;20049;-79
2021/06/27 09:28:18;;;;;;;7.68;6.57;;;;;;;24.92;56.72;101833.84;4940495;28;20046;-80
2021/06/27 09:30:47;;;;;;;9.75;8.27;;;;;;;24.99;52.50;101826.53;4960897;28;20043;-80
2021/06/27 09:33:31;;;;;;;8.73;7.20;;;;;;;25.12;52.60;101824.81;4948474;28;20594;-81
2021/06/27 09:36:00;;;;;;;10.52;7.07;;;;;;;25.24;53.85;101823.09;4963193;28;20049;-78
2021/06/27 09:38:40;;;;;;;9.27;7.57;;;;;;;25.19;51.98;101820.22;4955545;28;20105;-79
2021/06/27 09:41:23;;;;;;;9.88;7.03;;;;;;;25.44;52.31;101822.94;4947087;28;20074;-78
2021/06/27 09:44:04;;;;;;;8.68;7.10;;;;;;;25.63;49.37;101823.81;4972806;28;20038;-79
2021/06/27 09:46:32;;;;;;;8.80;6.57;;;;;;;25.71;51.86;101828.06;4956740;28;20516;-80
2021/06/27 09:49:00;;;;;;;7.57;5.72;;;;;;;25.82;50.30;101821.97;4971579;28;20042;-79
2021/06/27 09:51:28;;;;;;;8.85;6.43;;;;;;;26.01;53.03;101836.28;4962427;28;20030;-80
2021/06/27 09:53:54;;;;;;;9.70;6.70;;;;;;;25.98;49.67;101832.19;4940741;28;20050;-78
2021/06/27 09:56:26;;;;;;;7.32;5.82;;;;;;;26.03;53.05;101837.72;4942414;28;20098;-79
2021/06/27 09:59:04;;;;;;;7.97;6.90;;;;;;;25.98;51.52;101831.34;4941680;28;20086;-79
2021/06/27 10:01:31;;;;;;;7.30;6.60;;;;;;;26.20;49.82;101832.56;4970636;28;20109;-80
2021/06/27 10:04:01;;;;;;;8.95;7.68;;;;;;;25.70;52.06;101826.44;4971165;28;20117;-79
2021/06/27 10:06:48;;;;;;;10.25;7.45;;;;;;;25.04;51.65;101832.09;4960093;28;20042;-79
2021/06/27 10:09:22;;;;;;;9.18;8.13;;;;;;;24.57;52.20;101830.72;4960573;28;20077;-79
2021/06/27 10:12:01;;;;;;;8.73;7.82;;;;;;;24.49;53.81;101834.44;4935168;28;20094;-79
2021/06/27 10:14:30;;;;;;;10.55;8.77;;;;;;;25.01;52.39;101823.63;4919342;29;20058;-78
2021/06/27 10:16:57;;;;;;;10.15;7.97;;;;;;;25.11;51.52;101821.31;4936273;28;20043;-79
2021/06/27 10:19:25;;;;;;;7.70;6.90;;;;;;;24.76;58.77;101820.91;4930053;28;20484;-79
2021/06/27 10:21:50;;;;;;;9.18;8.27;;;;;;;24.65;55.58;101822.41;4971630;28;20592;-79
2021/06/27 10:24:19;;;;;;;10.68;8.10;;;;;;;24.65;54.66;101825.09;4972832;28;20037;-79
2021/06/27 10:26:46;;;;;;;11.40;7.97;;;;;;;24.69;54.91;101820.94;4936059;28;20042;-81
2021/06/27 10:29:12;;;;;;;11.40;9.30;;;;;;;24.52;51.80;101822.47;4939053;28;20074;-79
2021/06/27 10:31:38;;;;;;;9.27;7.93;;;;;;;24.82;52.37;101822.72;4958255;28;20038;-80
2021/06/27 10:34:04;;;;;;;9.38;7.93;;;;;;;24.86;52.39;101811.38;4942255;28;20070;-81
2021/06/27 10:36:42;;;;;;;10.18;8.00;;;;;;;24.66;52.69;101824.06;4963401;28;20042;-79
2021/06/27 10:39:11;;;;;;;7.63;6.22;;;;;;;24.24;58.57;101818.22;4947741;28;20030;-80
2021/06/27 10:42:01;;;;;;;9.32;7.10;;;;;;;24.25;55.72;101814.50;4919139;28;20047;-80
2021/06/27 10:44:30;;;;;;;8.13;7.00;;;;;;;25.10;51.92;101811.59;4928924;28;20033;-79
2021/06/27 10:46:58;;;;;;;11.45;7.25;;;;;;;25.87;57.33;101814.06;4934499;28;20050;-79
2021/06/27 10:49:33;;;;;;;11.40;8.32;;;;;;;26.35;48.58;101816.03;4934953;28;20093;-80
2021/06/27 10:52:05;;;;;;;9.40;8.00;;;;;;;26.16;47.60;101812.56;4943849;28;20046;-78
2021/06/27 10:54:35;;;;;;;9.52;6.88;;;;;;;25.65;52.07;101805.59;4949533;28;20034;-77
2021/06/27 10:57:11;;;;;;;8.80;6.88;;;;;;;25.31;53.70;101798.88;4937518;28;20042;-79
2021/06/27 10:59:47;;;;;;;8.68;7.05;;;;;;;24.86;54.26;101799.78;4937465;28;20575;-80
2021/06/27 11:02:21;;;;;;;10.18;7.60;;;;;;;24.92;55.04;101793.59;4938026;28;20039;-78
2021/06/27 11:04:49;;;;;;;7.95;7.15;;;;;;;24.90;54.10;101789.44;4944330;28;20038;-79
2021/06/27 11:07:34;;;;;;;7.32;5.80;;;;;;;24.76;55.72;101791.41;4958379;28;20042;-79
2021/06/27 11:10:18;;;;;;;7.32;5.63;;;;;;;24.67;60.37;101788.13;4953770;28;20054;-79
2021/06/27 11:15:23;;;;;;;7.35;6.50;;;;;;;25.67;49.40;101787.38;4942673;28;20184;-81